createdAt,value
2017-08-27T00:00:17.004Z,98.70
2017-08-27T00:02:43.303Z,98.80
2017-08-27T00:05:09.660Z,98.90
2017-08-27T00:07:35.951Z,99.00
2017-08-27T00:10:02.231Z,99.30
2017-08-27T00:12:28.656Z,99.10
2017-08-27T00:14:54.984Z,99.30
2017-08-27T00:17:21.981Z,99.80
2017-08-27T00:19:48.291Z,99.80
2017-08-27T00:22:14.792Z,99.80
2017-08-27T00:24:41.111Z,99.90
2017-08-27T00:27:07.456Z,99.90
2017-08-27T00:29:33.724Z,99.90
2017-08-27T00:32:00.063Z,99.90
2017-08-27T00:34:26.380Z,99.90
2017-08-27T00:36:52.863Z,99.90
2017-08-27T00:39:19.215Z,99.90
2017-08-27T00:41:45.566Z,99.90
2017-08-27T00:44:11.862Z,99.90
2017-08-27T00:46:38.192Z,99.90
2017-08-27T00:49:04.505Z,99.90
2017-08-27T00:51:30.813Z,99.90
2017-08-27T00:53:57.199Z,99.90
2017-08-27T00:56:23.511Z,99.90
2017-08-27T00:58:49.872Z,99.90
2017-08-27T01:01:16.131Z,99.90
2017-08-27T01:03:42.429Z,99.90
2017-08-27T01:06:08.697Z,99.90
2017-08-27T01:08:35.004Z,99.90
2017-08-27T01:11:01.312Z,99.90
2017-08-27T01:13:27.712Z,99.90
2017-08-27T01:15:54.011Z,99.90
2017-08-27T01:18:20.307Z,99.90
2017-08-27T01:20:46.631Z,99.90
2017-08-27T01:23:13.736Z,99.90
2017-08-27T01:25:39.997Z,99.90
2017-08-27T01:28:06.340Z,99.90
2017-08-27T01:30:32.635Z,99.90
2017-08-27T01:32:59.096Z,99.90
2017-08-27T01:35:25.384Z,99.90
2017-08-27T01:37:51.720Z,99.90
2017-08-27T01:40:18.012Z,99.90
2017-08-27T01:42:44.324Z,99.90
2017-08-27T01:45:10.655Z,99.90
2017-08-27T01:47:37.140Z,99.90
2017-08-27T01:50:03.415Z,99.90
2017-08-27T01:52:29.699Z,99.90
2017-08-27T01:54:55.999Z,99.90
2017-08-27T01:57:22.343Z,99.90
2017-08-27T01:59:48.864Z,99.90
2017-08-27T02:02:15.230Z,99.90
2017-08-27T02:04:41.616Z,99.90
2017-08-27T02:07:07.959Z,99.90
2017-08-27T02:09:34.240Z,99.90
2017-08-27T02:12:00.539Z,99.90
2017-08-27T02:14:26.883Z,99.90
2017-08-27T02:16:53.180Z,99.90
2017-08-27T02:19:19.491Z,99.90
2017-08-27T02:21:45.767Z,99.90
2017-08-27T02:24:12.122Z,99.90
2017-08-27T02:26:38.432Z,99.90
2017-08-27T02:29:04.780Z,99.90
2017-08-27T02:31:31.303Z,99.90
2017-08-27T02:33:57.601Z,99.90
2017-08-27T02:36:23.920Z,99.90
2017-08-27T02:38:50.197Z,99.90
2017-08-27T02:41:16.483Z,99.90
2017-08-27T02:43:42.793Z,99.90
2017-08-27T02:46:09.081Z,99.90
2017-08-27T02:48:35.400Z,99.90
2017-08-27T02:51:01.777Z,99.90
2017-08-27T02:53:28.096Z,99.90
2017-08-27T02:55:54.400Z,99.90
2017-08-27T02:58:20.691Z,99.90
2017-08-27T03:00:47.007Z,99.90
2017-08-27T03:03:13.273Z,99.90
2017-08-27T03:05:39.591Z,99.90
2017-08-27T03:08:05.890Z,99.90
2017-08-27T03:10:32.180Z,99.90
2017-08-27T03:12:58.590Z,99.90
2017-08-27T03:15:24.935Z,99.90
2017-08-27T03:17:51.428Z,99.90
2017-08-27T03:20:17.715Z,99.90
2017-08-27T03:22:44.015Z,99.90
2017-08-27T03:25:10.336Z,99.90
2017-08-27T03:27:36.657Z,99.90
2017-08-27T03:30:03.046Z,99.90
2017-08-27T03:32:29.501Z,99.90
2017-08-27T03:34:55.784Z,99.90
2017-08-27T03:37:22.080Z,99.90
2017-08-27T03:39:48.480Z,99.90
2017-08-27T03:42:14.759Z,99.90
2017-08-27T03:44:41.096Z,99.90
2017-08-27T03:47:07.371Z,99.90
2017-08-27T03:49:34.392Z,99.90
2017-08-27T03:52:00.753Z,99.90
2017-08-27T03:54:27.819Z,99.90
2017-08-27T03:56:54.172Z,99.90
2017-08-27T03:59:20.472Z,99.90
2017-08-27T04:01:46.823Z,99.90
2017-08-27T04:04:13.224Z,99.90
2017-08-27T04:06:40.256Z,99.90
2017-08-27T04:09:06.561Z,99.90
2017-08-27T04:11:32.993Z,99.90
2017-08-27T04:13:59.337Z,99.90
2017-08-27T04:16:25.744Z,99.90
2017-08-27T04:18:52.068Z,99.90
2017-08-27T04:21:18.340Z,99.90
2017-08-27T04:23:44.647Z,99.90
2017-08-27T04:26:11.003Z,99.90
2017-08-27T04:28:37.279Z,99.90
2017-08-27T04:31:03.560Z,99.90
2017-08-27T04:33:29.872Z,99.90
2017-08-27T04:35:56.228Z,99.90
2017-08-27T04:38:23.314Z,99.90
2017-08-27T04:40:49.578Z,99.90
2017-08-27T04:43:15.903Z,99.90
2017-08-27T04:45:42.176Z,99.90
2017-08-27T04:48:08.492Z,99.90
2017-08-27T04:50:34.785Z,99.90
2017-08-27T04:53:01.142Z,99.90
2017-08-27T04:55:27.454Z,99.90
2017-08-27T04:57:54.011Z,99.90
2017-08-27T05:00:20.308Z,99.90
2017-08-27T05:02:46.612Z,99.90
2017-08-27T05:05:12.988Z,99.50
2017-08-27T05:07:39.339Z,98.90
2017-08-27T05:10:05.642Z,98.70
2017-08-27T05:12:31.920Z,98.60
2017-08-27T05:14:58.200Z,98.40
2017-08-27T05:17:24.716Z,97.90
2017-08-27T05:19:51.136Z,97.30
2017-08-27T05:22:17.416Z,96.70
2017-08-27T05:24:43.724Z,96.20
2017-08-27T05:27:10.077Z,95.60
2017-08-27T05:29:36.411Z,94.80
2017-08-27T05:32:02.692Z,94.40
2017-08-27T05:34:29.055Z,94.10
2017-08-27T05:36:55.380Z,93.70
2017-08-27T05:39:21.668Z,92.60
2017-08-27T05:41:47.950Z,92.30
2017-08-27T05:44:14.260Z,91.90
2017-08-27T05:46:40.584Z,91.50
2017-08-27T05:49:06.912Z,91.30
2017-08-27T05:51:33.194Z,91.00
2017-08-27T05:53:59.501Z,90.90
2017-08-27T05:56:25.804Z,90.50
2017-08-27T05:58:52.164Z,90.30
2017-08-27T06:01:18.503Z,90.30
2017-08-27T06:03:44.822Z,90.20
2017-08-27T06:06:11.124Z,89.10
2017-08-27T06:08:37.444Z,88.30
2017-08-27T06:11:03.754Z,86.60
2017-08-27T06:13:30.022Z,85.80
2017-08-27T06:15:56.340Z,85.10
2017-08-27T06:18:22.824Z,83.30
2017-08-27T06:20:49.152Z,82.50
2017-08-27T06:23:15.448Z,82.90
2017-08-27T06:25:41.811Z,82.30
2017-08-27T06:28:08.072Z,81.70
2017-08-27T06:30:34.388Z,81.70
2017-08-27T06:33:00.779Z,81.10
2017-08-27T06:35:27.113Z,80.70
2017-08-27T06:37:53.481Z,80.20
2017-08-27T06:40:19.764Z,79.70
2017-08-27T06:42:46.060Z,79.00
2017-08-27T06:45:12.399Z,78.00
2017-08-27T06:47:38.696Z,76.70
2017-08-27T06:50:05.030Z,77.40
2017-08-27T06:52:31.348Z,77.20
2017-08-27T06:54:57.688Z,75.30
2017-08-27T06:57:23.983Z,74.10
2017-08-27T06:59:50.325Z,73.30
2017-08-27T07:02:16.628Z,71.20
2017-08-27T07:04:43.039Z,68.90
2017-08-27T07:07:09.420Z,67.60
2017-08-27T07:09:35.746Z,66.00
2017-08-27T07:12:02.064Z,63.10
2017-08-27T07:14:28.416Z,58.50
2017-08-27T07:16:54.836Z,53.80
2017-08-27T07:19:21.205Z,50.60
2017-08-27T07:21:47.564Z,49.30
2017-08-27T07:24:13.908Z,47.10
2017-08-27T07:26:40.205Z,46.00
2017-08-27T07:29:06.514Z,45.20
2017-08-27T07:31:32.832Z,43.70
2017-08-27T07:33:59.146Z,44.20
2017-08-27T07:36:25.494Z,45.00
2017-08-27T07:38:51.788Z,44.90
2017-08-27T07:41:18.126Z,44.90
2017-08-27T07:43:44.496Z,45.00
2017-08-27T07:46:10.944Z,44.00
2017-08-27T07:48:37.259Z,44.20
2017-08-27T07:51:03.551Z,45.00
2017-08-27T07:53:29.861Z,44.90
2017-08-27T07:55:56.161Z,45.70
2017-08-27T07:58:22.505Z,46.90
2017-08-27T08:00:48.804Z,48.30
2017-08-27T08:03:15.142Z,48.80
2017-08-27T08:05:41.468Z,49.80
2017-08-27T08:08:07.775Z,49.80
2017-08-27T08:10:34.072Z,50.80
2017-08-27T08:13:00.375Z,52.10
2017-08-27T08:15:26.676Z,51.90
2017-08-27T08:17:52.992Z,52.20
2017-08-27T08:20:19.361Z,52.10
2017-08-27T08:22:45.688Z,51.90
2017-08-27T08:25:11.994Z,50.90
2017-08-27T08:27:38.330Z,48.50
2017-08-27T08:30:04.720Z,46.50
2017-08-27T08:32:31.077Z,43.60
2017-08-27T08:34:57.407Z,39.70
2017-08-27T08:37:24.545Z,32.60
2017-08-27T08:39:50.875Z,32.40
2017-08-27T08:42:17.201Z,28.80
2017-08-27T08:44:43.529Z,28.60
2017-08-27T08:47:09.828Z,28.30
2017-08-27T08:49:36.171Z,27.60
2017-08-27T08:52:02.550Z,27.00
2017-08-27T08:54:29.040Z,26.80
2017-08-27T08:56:55.571Z,27.80
2017-08-27T08:59:21.899Z,28.10
2017-08-27T09:01:48.308Z,29.00
2017-08-27T09:04:14.679Z,28.20
2017-08-27T09:06:41.035Z,28.50
2017-08-27T09:09:07.379Z,29.30
2017-08-27T09:11:33.705Z,30.40
2017-08-27T09:14:00.039Z,30.80
2017-08-27T09:16:26.382Z,31.50
2017-08-27T09:18:52.767Z,30.90
2017-08-27T09:21:19.119Z,29.60
2017-08-27T09:23:45.496Z,28.30
2017-08-27T09:26:11.820Z,27.10
2017-08-27T09:28:38.108Z,28.40
2017-08-27T09:31:04.456Z,29.70
2017-08-27T09:33:30.828Z,30.50
2017-08-27T09:35:57.169Z,31.40
2017-08-27T09:38:23.504Z,32.70
2017-08-27T09:40:49.805Z,34.20
2017-08-27T09:43:16.114Z,33.80
2017-08-27T09:45:42.414Z,33.30
2017-08-27T09:48:08.729Z,33.40
2017-08-27T09:50:35.032Z,33.40
2017-08-27T09:53:01.381Z,33.30
2017-08-27T09:55:27.674Z,34.20
2017-08-27T09:57:54.176Z,35.00
2017-08-27T10:00:20.545Z,34.20
2017-08-27T10:02:46.852Z,33.60
2017-08-27T10:05:13.180Z,34.50
2017-08-27T10:07:39.477Z,35.50
2017-08-27T10:10:05.782Z,35.60
2017-08-27T10:12:32.083Z,35.70
2017-08-27T10:14:58.391Z,36.30
2017-08-27T10:17:24.741Z,36.90
2017-08-27T10:19:51.056Z,36.40
2017-08-27T10:22:18.221Z,37.80
2017-08-27T10:24:44.546Z,39.30
2017-08-27T10:27:10.903Z,40.70
2017-08-27T10:29:37.282Z,40.50
2017-08-27T10:32:03.635Z,40.60
2017-08-27T10:34:29.906Z,41.00
2017-08-27T10:36:56.228Z,41.10
2017-08-27T10:39:22.525Z,41.50
2017-08-27T10:41:48.869Z,42.00
2017-08-27T10:44:15.333Z,42.40
2017-08-27T10:46:41.643Z,42.00
2017-08-27T10:49:07.951Z,42.60
2017-08-27T10:51:34.281Z,43.30
2017-08-27T10:54:00.616Z,42.40
2017-08-27T10:56:26.958Z,42.30
2017-08-27T10:58:53.265Z,41.60
2017-08-27T11:01:19.546Z,41.50
2017-08-27T11:03:45.875Z,42.20
2017-08-27T11:06:12.177Z,42.60
2017-08-27T11:08:38.499Z,42.90
2017-08-27T11:11:04.826Z,42.60
2017-08-27T11:13:31.141Z,43.40
2017-08-27T11:15:57.492Z,42.80
2017-08-27T11:18:23.896Z,42.80
2017-08-27T11:20:50.183Z,43.20
2017-08-27T11:23:16.504Z,43.30
2017-08-27T11:25:42.820Z,43.50
2017-08-27T11:28:09.204Z,42.80
2017-08-27T11:30:35.534Z,42.60
2017-08-27T11:33:01.848Z,42.80
2017-08-27T11:35:28.214Z,43.80
2017-08-27T11:37:54.520Z,43.70
2017-08-27T11:40:20.901Z,42.70
2017-08-27T11:42:47.224Z,42.00
2017-08-27T11:45:13.507Z,42.70
2017-08-27T11:47:39.824Z,42.30
2017-08-27T11:50:06.187Z,42.00
2017-08-27T11:52:32.482Z,41.60
2017-08-27T11:54:58.802Z,40.90
2017-08-27T11:57:25.163Z,41.50
2017-08-27T11:59:51.509Z,42.70
2017-08-27T12:02:17.838Z,42.20
2017-08-27T12:04:44.896Z,43.50
2017-08-27T12:07:11.397Z,43.50
2017-08-27T12:09:37.703Z,42.80
2017-08-27T12:12:04.040Z,42.90
2017-08-27T12:14:30.366Z,44.20
2017-08-27T12:16:56.741Z,45.10
2017-08-27T12:19:23.018Z,45.70
2017-08-27T12:21:49.328Z,46.00
2017-08-27T12:24:15.648Z,46.70
2017-08-27T12:26:42.004Z,46.60
2017-08-27T12:29:08.332Z,46.30
2017-08-27T12:31:34.628Z,47.30
2017-08-27T12:34:00.956Z,46.50
2017-08-27T12:36:27.424Z,46.30
2017-08-27T12:38:53.764Z,46.30
2017-08-27T12:41:20.195Z,46.90
2017-08-27T12:43:46.514Z,47.80
2017-08-27T12:46:12.820Z,47.50
2017-08-27T12:48:39.167Z,46.70
2017-08-27T12:51:05.525Z,45.20
2017-08-27T12:53:31.839Z,44.60
2017-08-27T12:55:58.192Z,45.50
2017-08-27T13:00:55.148Z,44.80
2017-08-27T13:03:21.501Z,44.70
2017-08-27T13:05:47.804Z,44.10
2017-08-27T13:08:14.128Z,43.30
2017-08-27T13:10:40.432Z,42.60
2017-08-27T13:13:06.854Z,42.10
2017-08-27T13:15:33.180Z,42.60
2017-08-27T13:17:59.448Z,41.00
2017-08-27T13:20:25.805Z,40.80
2017-08-27T13:22:52.114Z,40.10
2017-08-27T13:25:18.423Z,39.70
2017-08-27T13:27:44.724Z,39.60
2017-08-27T13:30:11.429Z,40.80
2017-08-27T13:32:37.742Z,40.90
2017-08-27T13:35:04.110Z,40.00
2017-08-27T13:37:30.440Z,40.50
2017-08-27T13:39:56.789Z,40.50
2017-08-27T13:42:23.097Z,40.50
2017-08-27T13:44:49.653Z,41.30
2017-08-27T13:47:16.016Z,40.30
2017-08-27T13:49:42.337Z,40.30
2017-08-27T13:52:08.657Z,40.20
2017-08-27T13:54:35.004Z,40.70
2017-08-27T13:57:01.366Z,41.10
2017-08-27T13:59:27.664Z,41.60
2017-08-27T14:01:53.998Z,42.30
2017-08-27T14:04:20.316Z,42.00
2017-08-27T14:06:46.641Z,41.70
2017-08-27T14:09:12.987Z,40.70
2017-08-27T14:11:39.308Z,40.80
2017-08-27T14:14:05.625Z,38.80
2017-08-27T14:16:31.944Z,38.80
2017-08-27T14:18:58.229Z,39.50
2017-08-27T14:21:24.520Z,40.50
2017-08-27T14:23:50.848Z,41.70
2017-08-27T14:26:17.136Z,42.00
2017-08-27T14:28:43.509Z,41.70
2017-08-27T14:31:09.824Z,42.40
2017-08-27T14:33:36.186Z,42.40
2017-08-27T14:36:02.500Z,42.90
2017-08-27T14:38:28.994Z,43.60
2017-08-27T14:40:55.544Z,43.40
2017-08-27T14:43:21.943Z,43.60
2017-08-27T14:45:48.437Z,43.70
2017-08-27T14:48:14.732Z,43.60
2017-08-27T14:50:41.048Z,44.10
2017-08-27T14:53:07.353Z,44.90
2017-08-27T14:55:33.686Z,44.00
2017-08-27T14:57:59.993Z,44.40
2017-08-27T15:00:26.288Z,45.00
2017-08-27T15:02:52.609Z,45.50
2017-08-27T15:05:18.933Z,46.10
2017-08-27T15:07:45.435Z,46.40
2017-08-27T15:10:11.743Z,45.80
2017-08-27T15:12:38.020Z,46.10
2017-08-27T15:15:04.372Z,46.80
2017-08-27T15:17:30.688Z,46.50
2017-08-27T15:19:57.011Z,47.00
2017-08-27T15:22:23.484Z,47.10
2017-08-27T15:24:50.016Z,47.10
2017-08-27T15:27:16.340Z,46.80
2017-08-27T15:29:42.648Z,47.10
2017-08-27T15:32:08.998Z,47.40
2017-08-27T15:34:35.335Z,47.60
2017-08-27T15:37:01.665Z,48.00
2017-08-27T15:39:27.982Z,48.20
2017-08-27T15:41:54.344Z,47.30
2017-08-27T15:44:20.662Z,47.50
2017-08-27T15:46:46.996Z,47.80
2017-08-27T15:49:13.338Z,48.20
2017-08-27T15:51:39.625Z,48.50
2017-08-27T15:54:06.003Z,49.10
2017-08-27T15:56:32.336Z,49.20
2017-08-27T15:58:58.636Z,49.40
2017-08-27T16:01:24.985Z,49.30
2017-08-27T16:03:51.297Z,50.00
2017-08-27T16:06:17.591Z,49.60
2017-08-27T16:08:43.934Z,49.90
2017-08-27T16:11:10.217Z,50.20
2017-08-27T16:13:36.649Z,50.50
2017-08-27T16:16:02.973Z,50.60
2017-08-27T16:18:29.328Z,51.20
2017-08-27T16:20:55.695Z,50.40
2017-08-27T16:23:22.021Z,50.40
2017-08-27T16:25:48.377Z,50.50
2017-08-27T16:28:14.685Z,50.30
2017-08-27T16:30:41.000Z,50.40
2017-08-27T16:33:07.337Z,50.00
2017-08-27T16:35:33.663Z,50.40
2017-08-27T16:38:00.256Z,50.80
2017-08-27T16:40:26.584Z,50.40
2017-08-27T16:42:52.956Z,50.50
2017-08-27T16:45:19.386Z,51.00
2017-08-27T16:47:45.724Z,51.90
2017-08-27T16:50:12.125Z,52.40
2017-08-27T16:52:38.452Z,52.90
2017-08-27T16:55:04.812Z,53.80
2017-08-27T16:57:31.173Z,54.00
2017-08-27T16:59:57.508Z,54.30
2017-08-27T17:02:23.833Z,54.50
2017-08-27T17:04:50.177Z,54.70
2017-08-27T17:07:16.524Z,55.20
2017-08-27T17:09:42.852Z,55.30
2017-08-27T17:12:09.261Z,55.80
2017-08-27T17:14:35.621Z,56.50
2017-08-27T17:17:01.961Z,56.00
2017-08-27T17:19:28.277Z,56.50
2017-08-27T17:21:54.594Z,56.10
2017-08-27T17:24:20.968Z,56.40
2017-08-27T17:26:47.285Z,56.80
2017-08-27T17:29:13.615Z,56.80
2017-08-27T17:31:39.979Z,56.90
2017-08-27T17:34:06.268Z,56.90
2017-08-27T17:36:32.600Z,57.20
2017-08-27T17:38:58.908Z,57.20
2017-08-27T17:41:25.363Z,57.60
2017-08-27T17:43:51.676Z,57.60
2017-08-27T17:46:18.000Z,57.90
2017-08-27T17:48:44.352Z,58.20
2017-08-27T17:51:10.660Z,58.90
2017-08-27T17:53:36.964Z,59.00
2017-08-27T17:56:03.253Z,59.60
2017-08-27T17:58:29.555Z,60.30
2017-08-27T18:00:55.843Z,60.40
2017-08-27T18:03:22.153Z,60.60
2017-08-27T18:05:48.491Z,61.00
2017-08-27T18:08:14.796Z,61.50
2017-08-27T18:10:41.136Z,62.30
2017-08-27T18:13:07.460Z,62.30
2017-08-27T18:15:33.768Z,63.00
2017-08-27T18:18:00.087Z,63.20
2017-08-27T18:20:26.403Z,63.50
2017-08-27T18:22:52.733Z,63.90
2017-08-27T18:25:19.075Z,64.50
2017-08-27T18:27:45.423Z,64.30
2017-08-27T18:30:11.768Z,64.90
2017-08-27T18:32:38.100Z,65.30
2017-08-27T18:35:04.397Z,65.90
2017-08-27T18:37:30.719Z,66.10
2017-08-27T18:39:57.144Z,66.50
2017-08-27T18:42:23.459Z,66.40
2017-08-27T18:44:49.757Z,66.90
2017-08-27T18:47:16.076Z,67.10
2017-08-27T18:49:42.428Z,67.10
2017-08-27T18:52:08.737Z,67.90
2017-08-27T18:54:35.220Z,69.00
2017-08-27T18:57:01.541Z,69.40
2017-08-27T18:59:27.856Z,69.20
2017-08-27T19:01:54.164Z,68.90
2017-08-27T19:04:20.525Z,68.80
2017-08-27T19:06:46.859Z,69.00
2017-08-27T19:09:13.393Z,69.10
2017-08-27T19:11:39.720Z,69.10
2017-08-27T19:14:06.065Z,69.00
2017-08-27T19:16:32.340Z,68.70
2017-08-27T19:18:58.697Z,68.50
2017-08-27T19:21:25.036Z,68.10
2017-08-27T19:23:51.528Z,67.90
2017-08-27T19:26:17.853Z,68.20
2017-08-27T19:28:44.212Z,68.60
2017-08-27T19:31:10.513Z,69.40
2017-08-27T19:33:36.860Z,69.40
2017-08-27T19:36:03.239Z,68.90
2017-08-27T19:38:29.570Z,68.80
2017-08-27T19:40:55.885Z,69.70
2017-08-27T19:43:22.233Z,69.00
2017-08-27T19:45:48.593Z,68.50
2017-08-27T19:48:14.954Z,68.70
2017-08-27T19:50:41.319Z,69.00
2017-08-27T19:53:07.661Z,69.50
2017-08-27T19:55:34.729Z,70.50
2017-08-27T19:58:01.141Z,70.20
2017-08-27T20:00:27.436Z,70.40
2017-08-27T20:02:53.772Z,69.90
2017-08-27T20:05:20.044Z,69.90
2017-08-27T20:07:46.459Z,70.00
2017-08-27T20:10:12.900Z,70.10
2017-08-27T20:12:39.217Z,69.70
2017-08-27T20:15:05.636Z,69.40
2017-08-27T20:17:31.945Z,70.40
2017-08-27T20:19:58.252Z,69.30
2017-08-27T20:22:24.580Z,69.40
2017-08-27T20:24:50.920Z,69.10
2017-08-27T20:27:17.305Z,68.80
2017-08-27T20:29:44.008Z,68.60
2017-08-27T20:32:10.308Z,68.90
2017-08-27T20:34:36.850Z,69.20
2017-08-27T20:37:03.174Z,69.70
2017-08-27T20:39:29.519Z,69.90
2017-08-27T20:41:55.886Z,69.70
2017-08-27T20:44:22.208Z,69.80
2017-08-27T20:46:48.512Z,69.60
2017-08-27T20:49:14.886Z,69.40
2017-08-27T20:51:41.267Z,69.70
2017-08-27T20:54:07.581Z,69.70
2017-08-27T20:56:33.893Z,69.70
2017-08-27T20:59:00.175Z,70.00
2017-08-27T21:01:26.520Z,69.50
2017-08-27T21:03:52.845Z,69.30
2017-08-27T21:06:19.152Z,69.10
2017-08-27T21:08:45.484Z,69.60
2017-08-27T21:11:11.791Z,69.80
2017-08-27T21:13:38.106Z,70.30
2017-08-27T21:16:04.432Z,70.40
2017-08-27T21:18:30.726Z,71.10
2017-08-27T21:20:57.233Z,71.40
2017-08-27T21:23:23.558Z,71.70
2017-08-27T21:25:49.900Z,71.50
2017-08-27T21:28:16.242Z,71.00
2017-08-27T21:30:42.613Z,71.40
2017-08-27T21:33:08.949Z,71.20
2017-08-27T21:35:35.257Z,71.00
2017-08-27T21:38:01.592Z,71.40
2017-08-27T21:40:28.628Z,70.80
2017-08-27T21:42:55.044Z,71.10
2017-08-27T21:45:21.400Z,70.50
2017-08-27T21:47:47.746Z,71.00
2017-08-27T21:50:14.036Z,71.70
2017-08-27T21:52:40.333Z,71.00
2017-08-27T21:55:06.666Z,71.10
2017-08-27T21:57:32.995Z,70.90
2017-08-27T21:59:59.471Z,71.00
2017-08-27T22:02:25.814Z,71.10
2017-08-27T22:04:55.060Z,71.10
2017-08-27T22:07:21.400Z,71.40
2017-08-27T22:09:47.777Z,71.30
2017-08-27T22:12:14.133Z,71.60
2017-08-27T22:14:40.456Z,71.70
2017-08-27T22:17:06.788Z,71.50
2017-08-27T22:19:33.151Z,71.10
2017-08-27T22:21:59.532Z,71.20
2017-08-27T22:24:25.800Z,72.10
2017-08-27T22:26:52.095Z,71.60
2017-08-27T22:29:18.402Z,72.10
2017-08-27T22:31:44.707Z,72.80
2017-08-27T22:34:11.019Z,72.30
2017-08-27T22:36:37.344Z,72.10
2017-08-27T22:39:03.628Z,72.40
2017-08-27T22:41:29.912Z,72.40
2017-08-27T22:43:56.240Z,72.30
2017-08-27T22:46:22.520Z,72.30
2017-08-27T22:48:49.052Z,72.00
2017-08-27T22:51:15.404Z,71.90
2017-08-27T22:53:41.768Z,71.60
2017-08-27T22:56:08.076Z,71.50
2017-08-27T22:58:34.376Z,71.60
2017-08-27T23:01:00.714Z,72.20
2017-08-27T23:03:27.059Z,71.80
2017-08-27T23:05:53.350Z,71.90
2017-08-27T23:08:19.668Z,71.90
2017-08-27T23:10:45.932Z,71.40
2017-08-27T23:13:12.207Z,71.40
2017-08-27T23:15:38.545Z,71.00
2017-08-27T23:18:04.846Z,70.40
2017-08-27T23:20:31.140Z,70.10
2017-08-27T23:22:57.455Z,70.10
2017-08-27T23:25:23.765Z,70.10
2017-08-27T23:27:50.047Z,69.70
2017-08-27T23:30:16.348Z,69.90
2017-08-27T23:32:42.661Z,70.00
2017-08-27T23:35:08.999Z,70.30
2017-08-27T23:37:35.349Z,70.10
2017-08-27T23:40:01.640Z,70.40
2017-08-27T23:42:27.939Z,70.30
2017-08-27T23:44:54.220Z,70.20
2017-08-27T23:47:20.560Z,70.00
2017-08-27T23:49:46.831Z,69.30
2017-08-27T23:52:13.284Z,69.00
2017-08-27T23:54:39.629Z,69.10
2017-08-27T23:57:05.922Z,68.90
2017-08-27T23:59:32.239Z,69.00
